GCTS

Tenerife South Airport

Tenerife Island, Spain
TAF GCTS 171400Z 1715/1815 10020KT 9999 FEW030 TX28/1715Z TN20/1805Z BECMG 1718/1720 07010KT
Issued Valid From Valid To
Aug-17 @ 14:00 UTC
(56 minutes ago)
Aug-17 @ 15:00 UTC
(in 4 minutes)
Aug-18 @ 15:00 UTC
(in 24 hours)
Aug-17 @ 15:00 to Aug-17 @ 18:00
TAF GCTS 171400Z 1715/1815 10020KT 9999 FEW030 TX28/1715Z TN20/1805Z
Wind Visibility Clouds
100° at 20 knots 10,000+ meters
  • Few at 3,000' AGL
Becoming Aug-17 @ 18:00 to Aug-18 @ 15:00
BECMG 1718/1720 07010KT
Wind Visibility Clouds
70° at 10 knots 10,000+ meters
  • Few at 3,000' AGL
TAF GCTS 171400Z 1715/1815 10020KT 9999 FEW030 TX28/1715Z TN20/1805Z BECMG 1718/1720 07010KT
Issued Aug-17 @ 14:00 UTC
(56 minutes ago)
Valid From Aug-17 @ 15:00 UTC
(in 4 minutes)
Valid To Aug-18 @ 15:00 UTC
(in 24 hours)
Aug-17 @ 15:00 - Aug-17 @ 18:00
Wind Visibility
100° at 20 knots 10,000+ meters
Clouds
  • Few at 3,000' AGL
Becoming Aug-17 @ 18:00 - Aug-18 @ 15:00
Wind Visibility
70° at 10 knots 10,000+ meters
Clouds
  • Few at 3,000' AGL